EDSBEDTY

Guest
Details From EDSB - Karlsruhe Baden Baden
To EDTY - SCHWABISCH HALL
Flight Number -
Tags generated
Created
Modified
Stats Distance 70 nm / 130 km
Max Altitude 9,000 ft / 2,743 m
Waypoints 3
Social Downloads 0
Likes 0
Share VATSIM

Download

Looking for another format? Having issues loading an existing format? Contact us
Advertisement - Login to hide

Notes

Basic altitude profile: - Ascent Rate: 2500ft/min - Ascent Speed: 250kts - Cruise Altitude: 35000ft - Cruise Speed: 420kts - Descent Rate: 1500ft/min - Descent Speed: 250kts Options: - Use NATs: yes - Use PACOTS: yes - Use low airways: yes - Use high airways: yes

Route

EDSB LAMGO EDTY

ID Type Via Altitude Latitude Longitude Leg Dist Tot Dist Heading (true) Name
O EDSB APT - 0 ft / 0 m 48.77926˚ 8.08064˚ - 0 nm - Karlsruhe Baden Baden
LAMGO FIX - 9,000 ft / 2,743 m 48.88583˚ 8.77917˚ 28 nm 28 nm 77° / 77° -
O EDTY APT - 0 ft / 0 m 49.11847˚ 9.78524˚ 42 nm 70 nm 70° / 71° SCHWABISCH HALL

Altitude Profile

Advertisement - Login to hide

EDSB

Details ICAO EDSB (FKB)
Name Karlsruhe Baden Baden
Region Germany - Civil
Timezone Europe/Berlin (UTC+1.0)
Stats Elevation 408 ft / 124 m (AMSL)
Location 48.779257° 8.080642°
Runways 1
Magnetic Variation 2.222° E

METAR

EDSB 121150Z 23008KT 200V260 9999 FEW026 BKN030 BKN068 05/01 Q1011

Decode

TAF

TAF EDSB 121100Z 1212/1312 23009KT 9999 BKN035 BECMG 1306/1309 20015G25KT

Decode

Departure Runways

ID Width Length Bearing (true) Bearing (mag) Surface Threshold Offset Overrun Length
03 148 ft / 45 m 9,799 ft / 2,987 m 31.69° 29.47° Asphalt 830 ft / 253 m 115 ft / 35 m
21 148 ft / 45 m 9,799 ft / 2,987 m 211.70° 209.48° Asphalt 830 ft / 253 m 115 ft / 35 m

EDTY

Details ICAO EDTY
Name SCHWABISCH HALL
Region Germany - Civil
Timezone Europe/Berlin (UTC+1.0)
Stats Elevation 1,311 ft / 400 m (AMSL)
Location 49.118474° 9.785239°
Runways 2
Magnetic Variation 2.673° E

METAR

EDTY 121150Z 25013KT 9999 SCT020 03/M01 Q1009

Decode

TAF

Not found

Destination Runways

ID Width Length Bearing (true) Bearing (mag) Surface Threshold Offset Overrun Length
10 98 ft / 30 m 5,039 ft / 1,536 m 98.80° 96.13° Concrete 575 ft / 175 m 0 ft / 0 m
10L 98 ft / 30 m 2,474 ft / 754 m 99.00° 96.33° Grass 0 ft / 0 m 0 ft / 0 m
28 98 ft / 30 m 5,039 ft / 1,536 m 278.82° 276.15° Concrete 415 ft / 126 m 0 ft / 0 m
28R 98 ft / 30 m 2,474 ft / 754 m 279.01° 276.34° Grass 0 ft / 0 m 0 ft / 0 m

Approach Navaids

Runway Type Ident Frequency Range Bearing (true) Bearing (mag) Slope Elevation
28 Localiser ISWH 111.50 MHz 18 nm / 33 km 278.81° 276.14° - 1,311 ft / 400 m (AMSL)
28 Glidescope ISWH 111.50 MHz 10 nm / 19 km 278.81° 276.14° 3.00° 1,311 ft / 400 m (AMSL)